Time;durP1;ratioP1;P1;durP2;ratioP2;P2;SDS_P1;SDS_P2;PMS_P1;PMS_P2;Temp;Humidity;BMP_temperature;BMP_pressure;BME280_temperature;BME280_humidity;BME280_pressure;Samples;Min_cycle;Max_cycle;Signal;HPM_P1;HPM_P2
2022/06/14 00:03:28;;;;;;;3.60;2.30;;;;;;100526.79;;;;107086;1295;22636;-38
2022/06/14 00:06:13;;;;;;;4.30;2.90;;;;;;100526.38;;;;107073;1295;22856;-38
2022/06/14 00:08:45;;;;;;;5.30;2.80;;;;;;100527.20;;;;107100;1295;23237;-38
2022/06/14 00:11:12;;;;;;;4.40;2.70;;;;;;100528.55;;;;107096;1295;24220;-38
2022/06/14 00:13:38;;;;;;;5.30;2.70;;;;;;100531.67;;;;107099;1295;22901;-38
2022/06/14 00:16:08;;;;;;;4.40;2.60;;;;;;100528.00;;;;107063;1295;23650;-38
2022/06/14 00:18:35;;;;;;;4.50;2.70;;;;;;100531.96;;;;107043;1295;22521;-38
2022/06/14 00:21:01;;;;;;;4.30;2.60;;;;;;100534.31;;;;107037;1295;22518;-38
2022/06/14 00:23:27;;;;;;;4.50;2.80;;;;;;100535.98;;;;107074;1295;22518;-38
2022/06/14 00:25:53;;;;;;;4.70;2.80;;;;;;100537.14;;;;107074;1295;22497;-38
2022/06/14 00:28:19;;;;;;;4.70;2.70;;;;;;100539.05;;;;107059;1299;24221;-38
2022/06/14 00:30:45;;;;;;;4.50;2.80;;;;;;100537.92;;;;107092;1295;22521;-38
2022/06/14 00:33:11;;;;;;;4.00;2.40;;;;;;100538.17;;;;107095;1295;24268;-38
2022/06/14 00:35:37;;;;;;;3.80;2.40;;;;;;100541.92;;;;107076;1295;22512;-38
2022/06/14 00:38:04;;;;;;;4.60;3.00;;;;;;100543.88;;;;107086;1295;22907;-38
2022/06/14 00:40:30;;;;;;;4.50;2.50;;;;;;100542.50;;;;107107;1295;22933;-38
2022/06/14 00:42:56;;;;;;;4.00;2.50;;;;;;100542.76;;;;107103;1295;23922;-38
2022/06/14 00:45:22;;;;;;;4.60;2.70;;;;;;100548.14;;;;107098;1299;22467;-38
2022/06/14 00:47:48;;;;;;;4.60;2.60;;;;;;100544.90;;;;107084;1295;22512;-38
2022/06/14 00:50:16;;;;;;;4.90;2.80;;;;;;100550.13;;;;107068;1295;22826;-38
2022/06/14 00:52:42;;;;;;;5.00;2.50;;;;;;100548.76;;;;107085;1295;22551;-38
2022/06/14 00:55:10;;;;;;;4.30;2.90;;;;;;100550.09;;;;107086;1295;25852;-38
2022/06/14 00:57:36;;;;;;;3.90;2.40;;;;;;100552.83;;;;107075;1295;22502;-38
2022/06/14 01:00:02;;;;;;;5.10;2.60;;;;;;100552.05;;;;107101;1299;22468;-38
2022/06/14 01:02:30;;;;;;;5.20;2.90;;;;;;100553.88;;;;107101;1295;22511;-38
2022/06/14 01:04:57;;;;;;;4.60;2.50;;;;;;100554.45;;;;107097;1295;22553;-38
2022/06/14 01:07:25;;;;;;;4.80;2.80;;;;;;100551.13;;;;107081;1299;22970;-38
2022/06/14 01:09:51;;;;;;;4.10;2.50;;;;;;100548.96;;;;107086;1295;22522;-38
2022/06/14 01:12:17;;;;;;;4.80;2.70;;;;;;100550.79;;;;107089;1295;22514;-38
2022/06/14 01:14:43;;;;;;;4.30;2.50;;;;;;100554.80;;;;107098;1295;22518;-38
2022/06/14 01:17:09;;;;;;;4.80;2.50;;;;;;100556.15;;;;107068;1295;23762;-39
2022/06/14 01:19:35;;;;;;;4.70;2.60;;;;;;100557.43;;;;107113;1295;25288;-39
2022/06/14 01:22:01;;;;;;;4.10;2.40;;;;;;100560.20;;;;107095;1295;24363;-37
2022/06/14 01:24:27;;;;;;;4.30;2.30;;;;;;100559.15;;;;107090;1295;24092;-38
2022/06/14 01:26:53;;;;;;;4.00;2.50;;;;;;100559.52;;;;107098;1295;25243;-38
2022/06/14 01:29:19;;;;;;;4.50;2.50;;;;;;100557.98;;;;107065;1295;24240;-38
2022/06/14 01:31:46;;;;;;;4.30;2.40;;;;;;100556.81;;;;107117;1295;22512;-38
2022/06/14 01:34:12;;;;;;;5.00;2.40;;;;;;100558.16;;;;107116;1295;23804;-38
2022/06/14 01:36:38;;;;;;;4.90;2.60;;;;;;100559.02;;;;107092;1295;25375;-38
2022/06/14 01:39:05;;;;;;;4.30;2.50;;;;;;100561.22;;;;107118;1295;22521;-38
2022/06/14 01:41:31;;;;;;;4.60;2.60;;;;;;100561.13;;;;107089;1295;22795;-38
2022/06/14 01:43:57;;;;;;;4.90;2.60;;;;;;100560.89;;;;107084;1299;22527;-38
2022/06/14 01:46:23;;;;;;;4.40;2.60;;;;;;100560.88;;;;107092;1295;24334;-38
2022/06/14 01:48:49;;;;;;;5.70;3.00;;;;;;100565.97;;;;107080;1295;22961;-38
2022/06/14 01:53:59;;;;;;;4.20;2.40;;;;;;100565.27;;;;107120;1295;25374;-38
2022/06/14 01:56:25;;;;;;;4.80;2.80;;;;;;100568.55;;;;107100;1295;22544;-39
2022/06/14 01:58:51;;;;;;;4.20;2.40;;;;;;100569.15;;;;107096;1295;22488;-39
2022/06/14 02:01:17;;;;;;;5.20;2.50;;;;;;100573.35;;;;107053;1295;22518;-39
2022/06/14 02:06:28;;;;;;;4.00;2.40;;;;;;100571.04;;;;107093;1295;22585;-39
2022/06/14 02:08:54;;;;;;;4.40;2.50;;;;;;100575.81;;;;107091;1295;22568;-39
2022/06/14 02:11:20;;;;;;;4.90;2.60;;;;;;100577.98;;;;107117;1295;22507;-39
2022/06/14 02:13:46;;;;;;;5.40;2.80;;;;;;100577.36;;;;107076;1295;23146;-39
2022/06/14 02:16:12;;;;;;;4.40;2.60;;;;;;100581.84;;;;107100;1295;23789;-39
2022/06/14 02:18:38;;;;;;;4.60;2.50;;;;;;100581.54;;;;107096;1295;22604;-39
2022/06/14 02:21:04;;;;;;;5.30;2.70;;;;;;100584.62;;;;107101;1295;25412;-39
2022/06/14 02:23:33;;;;;;;4.30;2.90;;;;;;100587.19;;;;107119;1295;22512;-39
2022/06/14 02:25:59;;;;;;;5.20;2.70;;;;;;100587.20;;;;107062;1295;22501;-39
2022/06/14 02:28:25;;;;;;;4.20;2.50;;;;;;100589.55;;;;107106;1295;22510;-39
2022/06/14 02:30:51;;;;;;;4.70;2.60;;;;;;100590.89;;;;107064;1295;22522;-39
2022/06/14 02:33:19;;;;;;;5.00;2.80;;;;;;100592.16;;;;107075;1295;22529;-38
2022/06/14 02:35:45;;;;;;;4.70;2.70;;;;;;100590.31;;;;107093;1295;24209;-38
2022/06/14 02:38:11;;;;;;;4.30;2.60;;;;;;100592.42;;;;107093;1295;23032;-38
2022/06/14 02:40:37;;;;;;;4.80;2.70;;;;;;100592.71;;;;107025;1295;101568;-38
2022/06/14 02:43:03;;;;;;;4.00;2.20;;;;;;100593.44;;;;107094;1295;22517;-38
2022/06/14 02:45:30;;;;;;;4.90;2.70;;;;;;100595.06;;;;107076;1295;25427;-38
2022/06/14 02:47:56;;;;;;;5.30;2.80;;;;;;100593.48;;;;107109;1299;22505;-38
2022/06/14 02:50:23;;;;;;;4.50;2.60;;;;;;100593.86;;;;107096;1295;22518;-38
2022/06/14 02:52:49;;;;;;;4.30;2.60;;;;;;100590.14;;;;107109;1295;22846;-38
2022/06/14 02:55:17;;;;;;;4.60;2.40;;;;;;100590.43;;;;107080;1295;22917;-38
2022/06/14 02:58:01;;;;;;;3.90;2.40;;;;;;100590.61;;;;107088;1295;22506;-38
2022/06/14 03:00:46;;;;;;;4.20;2.50;;;;;;100594.55;;;;107103;1295;22572;-38
2022/06/14 03:03:31;;;;;;;5.50;2.60;;;;;;100593.81;;;;107076;1295;23816;-38
2022/06/14 03:06:15;;;;;;;5.80;2.60;;;;;;100599.70;;;;107129;1295;22506;-38
2022/06/14 03:09:00;;;;;;;4.50;2.60;;;;;;100598.98;;;;107094;1295;23154;-38
2022/06/14 03:11:45;;;;;;;4.70;2.40;;;;;;100600.68;;;;107116;1295;22509;-38
2022/06/14 03:14:29;;;;;;;5.40;2.50;;;;;;100602.30;;;;107104;1299;22514;-38
2022/06/14 03:17:14;;;;;;;4.70;2.60;;;;;;100604.98;;;;107104;1295;22512;-38
2022/06/14 03:19:58;;;;;;;5.10;2.90;;;;;;100608.32;;;;107088;1295;22502;-38
2022/06/14 03:22:25;;;;;;;5.40;2.50;;;;;;100610.98;;;;107089;1295;25415;-37
2022/06/14 03:24:51;;;;;;;4.20;2.50;;;;;;100607.70;;;;107104;1295;22518;-38
2022/06/14 03:27:17;;;;;;;4.80;2.60;;;;;;100612.13;;;;107136;1295;22505;-38
2022/06/14 03:29:43;;;;;;;4.50;2.50;;;;;;100614.67;;;;107103;1295;22502;-38
2022/06/14 03:32:09;;;;;;;4.30;2.60;;;;;;100615.47;;;;107104;1295;22538;-37
2022/06/14 03:34:36;;;;;;;5.10;2.50;;;;;;100614.45;;;;107103;1295;22674;-38
2022/06/14 03:37:02;;;;;;;4.00;2.40;;;;;;100617.27;;;;107100;1295;25372;-38
2022/06/14 03:39:28;;;;;;;4.50;2.80;;;;;;100619.01;;;;107109;1295;23294;-38
2022/06/14 03:41:54;;;;;;;4.80;2.60;;;;;;100621.06;;;;107084;1295;24381;-38
2022/06/14 03:44:20;;;;;;;4.60;2.50;;;;;;100626.50;;;;107092;1295;23699;-39
2022/06/14 03:46:46;;;;;;;4.00;2.50;;;;;;100628.46;;;;107082;1295;22906;-39
2022/06/14 03:49:12;;;;;;;4.10;2.50;;;;;;100630.77;;;;107096;1295;22724;-38
2022/06/14 03:51:38;;;;;;;4.90;2.90;;;;;;100630.81;;;;107105;1295;24236;-39
2022/06/14 03:54:06;;;;;;;4.30;2.60;;;;;;100630.70;;;;107089;1295;25289;-38
2022/06/14 03:56:32;;;;;;;4.80;2.60;;;;;;100634.38;;;;107120;1295;23821;-38
2022/06/14 03:58:58;;;;;;;4.60;2.80;;;;;;100633.85;;;;107077;1295;25408;-38
2022/06/14 04:01:25;;;;;;;4.20;2.90;;;;;;100639.39;;;;107093;1295;25285;-38
2022/06/14 04:03:51;;;;;;;5.10;2.80;;;;;;100637.77;;;;107097;1295;24211;-38
2022/06/14 04:06:17;;;;;;;5.00;2.70;;;;;;100640.20;;;;107084;1295;25302;-38
2022/06/14 04:08:43;;;;;;;4.50;2.40;;;;;;100639.56;;;;107113;1299;22516;-38
2022/06/14 04:11:09;;;;;;;4.80;2.50;;;;;;100635.73;;;;107076;1299;22464;-38
2022/06/14 04:13:35;;;;;;;5.20;2.70;;;;;;100636.71;;;;107094;1295;22558;-38
2022/06/14 04:16:01;;;;;;;4.00;2.30;;;;;;100640.52;;;;107088;1299;22506;-38
2022/06/14 04:18:38;;;;;;;4.20;2.30;;;;;;100641.25;;;;107083;1295;22843;-38
2022/06/14 04:21:04;;;;;;;4.00;2.60;;;;;;100639.23;;;;107118;1295;22513;-38
2022/06/14 04:23:30;;;;;;;4.40;2.80;;;;;;100641.05;;;;107102;1295;24221;-38
2022/06/14 04:25:56;;;;;;;4.70;2.50;;;;;;100639.98;;;;107099;1295;24246;-38
2022/06/14 04:28:22;;;;;;;4.70;2.60;;;;;;100640.63;;;;107084;1295;25256;-38
2022/06/14 04:30:50;;;;;;;4.60;2.60;;;;;;100639.45;;;;107092;1295;22514;-38
2022/06/14 04:33:16;;;;;;;4.70;2.70;;;;;;100638.54;;;;107112;1295;23851;-38
2022/06/14 04:35:42;;;;;;;4.30;2.50;;;;;;100636.73;;;;107109;1295;22490;-38
2022/06/14 04:38:08;;;;;;;3.70;2.50;;;;;;100637.34;;;;107133;1295;22666;-38
2022/06/14 04:40:34;;;;;;;4.20;2.20;;;;;;100638.16;;;;107123;1295;24240;-38
2022/06/14 04:43:00;;;;;;;5.60;2.60;;;;;;100638.49;;;;107110;1298;24416;-38
2022/06/14 04:45:26;;;;;;;4.80;2.70;;;;;;100641.27;;;;107092;1295;25398;-38
2022/06/14 04:47:52;;;;;;;4.60;3.00;;;;;;100641.80;;;;107094;1295;22801;-38
2022/06/14 04:50:18;;;;;;;4.30;2.60;;;;;;100641.79;;;;107085;1295;23789;-38
2022/06/14 04:52:45;;;;;;;4.10;2.30;;;;;;100644.00;;;;107129;1295;25291;-38
2022/06/14 04:55:11;;;;;;;4.40;2.70;;;;;;100642.49;;;;107106;1295;22505;-38
2022/06/14 04:57:37;;;;;;;4.30;2.50;;;;;;100644.84;;;;107124;1295;24236;-38
2022/06/14 05:00:03;;;;;;;5.30;2.80;;;;;;100642.60;;;;107121;1299;22650;-38
2022/06/14 05:02:29;;;;;;;4.60;2.60;;;;;;100646.57;;;;107093;1295;24206;-38
2022/06/14 05:04:55;;;;;;;4.80;2.70;;;;;;100649.01;;;;107076;1295;22837;-38
2022/06/14 05:07:21;;;;;;;4.20;2.50;;;;;;100647.34;;;;107101;1295;22873;-37
2022/06/14 05:09:47;;;;;;;4.40;2.70;;;;;;100650.16;;;;107099;1295;22525;-38
2022/06/14 05:12:13;;;;;;;4.50;2.80;;;;;;100647.84;;;;107109;1295;24392;-38
2022/06/14 05:14:39;;;;;;;4.40;2.50;;;;;;100656.98;;;;107114;1295;22562;-38
2022/06/14 05:17:05;;;;;;;5.30;2.70;;;;;;100652.68;;;;107099;1295;23911;-38
2022/06/14 05:19:31;;;;;;;4.20;2.70;;;;;;100650.55;;;;107117;1299;22512;-38
2022/06/14 05:21:57;;;;;;;4.40;2.70;;;;;;100651.05;;;;107115;1295;22569;-38
2022/06/14 05:24:23;;;;;;;4.20;2.70;;;;;;100649.66;;;;107126;1295;25366;-39
2022/06/14 05:26:49;;;;;;;4.50;2.50;;;;;;100647.56;;;;107081;1295;22505;-39
2022/06/14 05:29:15;;;;;;;4.50;2.60;;;;;;100645.14;;;;107073;1295;25288;-39
2022/06/14 05:31:41;;;;;;;5.40;2.50;;;;;;100646.45;;;;107110;1295;22758;-38
2022/06/14 05:34:07;;;;;;;4.70;2.60;;;;;;100645.64;;;;107107;1298;22509;-38
2022/06/14 05:36:34;;;;;;;5.20;2.90;;;;;;100644.33;;;;107105;1295;22518;-38
2022/06/14 05:39:00;;;;;;;5.20;2.30;;;;;;100641.55;;;;107095;1295;22891;-38
2022/06/14 05:41:26;;;;;;;4.10;2.40;;;;;;100640.63;;;;107114;1299;22540;-38
2022/06/14 05:43:52;;;;;;;5.60;2.50;;;;;;100644.42;;;;107092;1295;24252;-38
2022/06/14 05:46:18;;;;;;;4.00;2.40;;;;;;100647.10;;;;107093;1295;24316;-38
2022/06/14 05:48:47;;;;;;;4.30;2.40;;;;;;100644.46;;;;107120;1295;22513;-38
2022/06/14 05:51:13;;;;;;;3.80;2.30;;;;;;100646.27;;;;107085;1295;22661;-38
2022/06/14 05:53:39;;;;;;;4.60;2.20;;;;;;100651.42;;;;107107;1295;23772;-38
2022/06/14 05:56:05;;;;;;;4.20;2.30;;;;;;100652.18;;;;107099;1295;25402;-38
2022/06/14 05:58:31;;;;;;;4.80;2.20;;;;;;100652.64;;;;107112;1295;23635;-38
2022/06/14 06:00:57;;;;;;;3.50;2.00;;;;;;100656.05;;;;107072;1295;22901;-38
2022/06/14 06:03:23;;;;;;;3.80;2.10;;;;;;100659.96;;;;107096;1295;22499;-38
2022/06/14 06:05:49;;;;;;;4.00;2.30;;;;;;100660.06;;;;107098;1295;22499;-38
2022/06/14 06:08:15;;;;;;;4.80;2.20;;;;;;100659.06;;;;107097;1295;25371;-38
2022/06/14 06:10:41;;;;;;;3.90;2.00;;;;;;100663.48;;;;107117;1295;24173;-38
2022/06/14 06:13:07;;;;;;;3.50;1.90;;;;;;100661.53;;;;107122;1295;22712;-38
2022/06/14 06:15:33;;;;;;;3.30;2.00;;;;;;100665.06;;;;107119;1299;22582;-38
2022/06/14 06:17:59;;;;;;;4.60;2.00;;;;;;100663.90;;;;107093;1295;22840;-38
2022/06/14 06:20:26;;;;;;;3.80;2.00;;;;;;100655.77;;;;107086;1299;23761;-38
2022/06/14 06:22:52;;;;;;;3.90;1.90;;;;;;100666.06;;;;107100;1295;22601;-38
2022/06/14 06:25:18;;;;;;;3.30;1.90;;;;;;100664.41;;;;107088;1295;24264;-38
2022/06/14 06:27:44;;;;;;;2.80;1.60;;;;;;100662.35;;;;107089;1295;24331;-38
2022/06/14 06:30:12;;;;;;;3.60;1.90;;;;;;100664.45;;;;107097;1295;22869;-38
2022/06/14 06:32:39;;;;;;;4.50;2.20;;;;;;100668.29;;;;107109;1297;22506;-38
2022/06/14 06:35:05;;;;;;;4.50;2.10;;;;;;100665.27;;;;107081;1295;22509;-38
2022/06/14 06:37:31;;;;;;;4.30;1.90;;;;;;100663.27;;;;107087;1295;22566;-39
2022/06/14 06:39:57;;;;;;;4.00;2.10;;;;;;100663.09;;;;107112;1295;22507;-39
2022/06/14 06:42:25;;;;;;;5.30;2.20;;;;;;100657.74;;;;107088;1295;22508;-39
2022/06/14 06:44:51;;;;;;;4.50;2.10;;;;;;100659.95;;;;107080;1295;22821;-39
2022/06/14 06:47:17;;;;;;;5.80;2.30;;;;;;100659.72;;;;107139;1295;22581;-39
2022/06/14 06:49:43;;;;;;;5.10;2.00;;;;;;100660.84;;;;107109;1295;22691;-39
2022/06/14 06:52:11;;;;;;;4.50;2.00;;;;;;100660.83;;;;107100;1295;25408;-39
2022/06/14 06:54:37;;;;;;;6.00;2.20;;;;;;100663.23;;;;107076;1295;24275;-39
2022/06/14 06:57:03;;;;;;;4.80;2.10;;;;;;100669.28;;;;107125;1295;22510;-39
2022/06/14 06:59:29;;;;;;;4.00;2.00;;;;;;100670.95;;;;107112;1295;22633;-39
2022/06/14 07:01:55;;;;;;;5.40;1.90;;;;;;100679.91;;;;107121;1295;22506;-39
2022/06/14 07:05:02;;;;;;;4.70;1.90;;;;;;100677.48;;;;107076;1295;22943;-39
2022/06/14 07:07:08;;;;;;;4.60;2.00;;;;;;100673.39;;;;107079;1295;25384;-39
2022/06/14 07:09:33;;;;;;;5.30;1.70;;;;;;100672.39;;;;107108;1299;22509;-39
2022/06/14 07:12:00;;;;;;;4.50;2.10;;;;;;100673.87;;;;107083;1295;23004;-39
2022/06/14 07:14:28;;;;;;;4.80;2.20;;;;;;100676.48;;;;107065;1295;22556;-38
2022/06/14 07:16:54;;;;;;;3.90;1.70;;;;;;100678.81;;;;107055;1301;22557;-34
2022/06/14 07:19:21;;;;;;;5.20;1.90;;;;;;100673.06;;;;106967;1299;22468;-36
2022/06/14 07:21:49;;;;;;;6.20;2.20;;;;;;100669.89;;;;107060;1295;23748;-36
2022/06/14 07:24:15;;;;;;;4.30;2.00;;;;;;100666.81;;;;107068;1295;22479;-36
2022/06/14 07:26:41;;;;;;;4.60;1.90;;;;;;100668.45;;;;107077;1295;22569;-37
2022/06/14 07:29:07;;;;;;;5.10;2.00;;;;;;100668.40;;;;106920;1296;22518;-37
2022/06/14 07:31:33;;;;;;;4.50;1.90;;;;;;100671.04;;;;107075;1295;23013;-37
2022/06/14 07:33:59;;;;;;;3.80;2.10;;;;;;100665.88;;;;107038;1295;22957;-37
2022/06/14 07:36:25;;;;;;;6.30;1.90;;;;;;100669.40;;;;107092;1295;23813;-43
2022/06/14 07:38:51;;;;;;;4.50;1.70;;;;;;100673.40;;;;107077;1295;25242;-41
2022/06/14 07:41:17;;;;;;;3.60;1.60;;;;;;100664.86;;;;107102;1295;22560;-38
2022/06/14 07:43:43;;;;;;;4.40;1.90;;;;;;100666.79;;;;107078;1295;23631;-38
2022/06/14 07:46:09;;;;;;;4.20;1.90;;;;;;100660.58;;;;107104;1295;22856;-37
2022/06/14 07:48:35;;;;;;;3.40;1.80;;;;;;100657.02;;;;107086;1295;22817;-36
2022/06/14 07:51:02;;;;;;;3.80;1.60;;;;;;100661.76;;;;107118;1295;24366;-37
2022/06/14 07:53:28;;;;;;;3.60;1.60;;;;;;100659.59;;;;107060;1295;22517;-37
2022/06/14 07:55:54;;;;;;;4.00;1.70;;;;;;100662.44;;;;107109;1299;22569;-37
2022/06/14 07:58:20;;;;;;;3.00;1.60;;;;;;100662.20;;;;107070;1295;22752;-37
2022/06/14 08:03:32;;;;;;;3.30;1.40;;;;;;100663.64;;;;107064;1295;24316;-37
2022/06/14 08:05:58;;;;;;;3.00;1.50;;;;;;100662.48;;;;107100;1298;22518;-38
2022/06/14 08:08:26;;;;;;;3.40;1.50;;;;;;100655.09;;;;107072;1295;22836;-37
2022/06/14 08:10:53;;;;;;;3.70;1.60;;;;;;100660.14;;;;107076;1299;22508;-38
2022/06/14 08:13:19;;;;;;;3.70;1.50;;;;;;100660.40;;;;107085;1295;22467;-38
2022/06/14 08:15:45;;;;;;;3.80;1.40;;;;;;100665.33;;;;107091;1295;22513;-38
2022/06/14 08:18:11;;;;;;;2.50;1.20;;;;;;100670.39;;;;107120;1295;22515;-38
2022/06/14 08:20:37;;;;;;;3.30;1.50;;;;;;100659.91;;;;107074;1295;22597;-38
2022/06/14 08:23:03;;;;;;;3.90;1.40;;;;;;100656.06;;;;107080;1295;24667;-38
2022/06/14 08:25:29;;;;;;;4.40;1.30;;;;;;100660.99;;;;107065;1295;22592;-37
2022/06/14 08:27:55;;;;;;;6.30;1.40;;;;;;100657.42;;;;107072;1295;22509;-37
2022/06/14 08:30:24;;;;;;;3.20;1.20;;;;;;100655.23;;;;107083;1295;22875;-37
2022/06/14 08:32:50;;;;;;;5.40;1.40;;;;;;100658.83;;;;107113;1295;22507;-38
2022/06/14 08:35:18;;;;;;;4.60;1.20;;;;;;100658.63;;;;107063;1295;22510;-38
2022/06/14 08:37:45;;;;;;;4.10;1.30;;;;;;100659.46;;;;107090;1295;22706;-38
2022/06/14 08:40:11;;;;;;;5.10;1.60;;;;;;100656.30;;;;107068;1295;22526;-37
2022/06/14 08:42:37;;;;;;;4.00;1.30;;;;;;100657.95;;;;107092;1295;22827;-38
2022/06/14 08:45:03;;;;;;;3.70;1.40;;;;;;100658.54;;;;107081;1295;23084;-37
2022/06/14 08:47:29;;;;;;;3.00;1.50;;;;;;100659.36;;;;107069;1295;22623;-40
2022/06/14 08:49:56;;;;;;;3.00;1.40;;;;;;100658.91;;;;107076;1299;22515;-40
2022/06/14 08:52:27;;;;;;;2.80;1.10;;;;;;100658.60;;;;107078;1295;22509;-40
2022/06/14 08:54:56;;;;;;;2.70;1.20;;;;;;100660.09;;;;107065;1295;23732;-39
2022/06/14 08:57:22;;;;;;;2.90;1.40;;;;;;100659.23;;;;107059;1300;22662;-40
2022/06/14 08:59:51;;;;;;;3.70;1.40;;;;;;100659.73;;;;107075;1295;22646;-40
2022/06/14 09:02:17;;;;;;;3.50;1.40;;;;;;100658.56;;;;107081;1295;22630;-40
2022/06/14 09:04:43;;;;;;;3.90;1.60;;;;;;100657.39;;;;107076;1295;22974;-40
2022/06/14 09:07:09;;;;;;;3.70;1.40;;;;;;100663.73;;;;107090;1295;22534;-38
2022/06/14 09:09:38;;;;;;;2.20;1.10;;;;;;100665.09;;;;107078;1295;22515;-38
2022/06/14 09:12:07;;;;;;;3.80;1.60;;;;;;100664.09;;;;107066;1295;25199;-38
2022/06/14 09:14:34;;;;;;;4.00;1.50;;;;;;100663.06;;;;107097;1295;22495;-37
2022/06/14 09:17:00;;;;;;;3.90;1.20;;;;;;100660.88;;;;107095;1295;22559;-38
2022/06/14 09:19:26;;;;;;;2.80;1.20;;;;;;100651.54;;;;107093;1295;22515;-38
2022/06/14 09:21:52;;;;;;;3.00;1.10;;;;;;100654.43;;;;107073;1295;22452;-38
2022/06/14 09:24:20;;;;;;;2.60;1.30;;;;;;100653.06;;;;107048;1295;25072;-37
2022/06/14 09:26:46;;;;;;;2.40;1.10;;;;;;100654.96;;;;106906;1296;23707;-37
2022/06/14 09:29:12;;;;;;;4.10;1.20;;;;;;100658.41;;;;107068;1295;25430;-38
2022/06/14 09:31:44;;;;;;;2.80;1.00;;;;;;100654.98;;;;107087;1295;22705;-39
2022/06/14 09:34:09;;;;;;;3.20;1.20;;;;;;100662.71;;;;107098;1295;22616;-39
2022/06/14 09:36:35;;;;;;;2.60;1.20;;;;;;100666.48;;;;107062;1295;23044;-38
2022/06/14 09:39:02;;;;;;;3.50;1.10;;;;;;100668.43;;;;107052;1295;22525;-38
2022/06/14 09:41:30;;;;;;;3.30;1.20;;;;;;100675.84;;;;107041;1299;22518;-39
2022/06/14 09:43:56;;;;;;;2.60;1.10;;;;;;100679.81;;;;107078;1299;22508;-37
2022/06/14 09:46:22;;;;;;;3.00;1.00;;;;;;100681.79;;;;107075;1295;23768;-37
2022/06/14 09:48:51;;;;;;;2.70;1.00;;;;;;100679.79;;;;107091;1295;24321;-39
2022/06/14 09:51:17;;;;;;;4.20;1.20;;;;;;100677.61;;;;107093;1295;23775;-38
2022/06/14 09:53:43;;;;;;;2.70;1.10;;;;;;100682.13;;;;107041;1299;22797;-38
2022/06/14 09:56:09;;;;;;;2.60;1.20;;;;;;100685.77;;;;107065;1295;22561;-41
2022/06/14 09:58:36;;;;;;;3.90;1.30;;;;;;100686.10;;;;107065;1295;22962;-39
2022/06/14 10:01:04;;;;;;;3.40;1.10;;;;;;100681.62;;;;107088;1295;25415;-41
2022/06/14 10:03:30;;;;;;;2.90;1.10;;;;;;100677.13;;;;107072;1299;22514;-41
2022/06/14 10:05:58;;;;;;;2.90;1.10;;;;;;100672.27;;;;107077;1295;24368;-39
2022/06/14 10:08:26;;;;;;;3.70;1.20;;;;;;100666.47;;;;106959;1299;22565;-41
2022/06/14 10:10:53;;;;;;;2.60;1.00;;;;;;100663.51;;;;107039;1295;22637;-41
2022/06/14 10:13:19;;;;;;;4.50;1.00;;;;;;100660.65;;;;107086;1295;22576;-41
2022/06/14 10:15:44;;;;;;;2.90;1.00;;;;;;100660.57;;;;106966;1295;22621;-41
2022/06/14 10:18:12;;;;;;;3.00;1.20;;;;;;100657.34;;;;107101;1295;24159;-41
2022/06/14 10:20:38;;;;;;;2.90;1.00;;;;;;100660.64;;;;106908;1296;22877;-41
2022/06/14 10:23:06;;;;;;;3.60;1.20;;;;;;100662.55;;;;106930;1296;22547;-40
2022/06/14 10:25:33;;;;;;;2.60;1.00;;;;;;100659.85;;;;106922;1296;22647;-41
2022/06/14 10:28:11;;;;;;;3.70;0.90;;;;;;100665.31;;;;106923;1297;24206;-41
2022/06/14 10:30:37;;;;;;;3.60;1.00;;;;;;100665.25;;;;106827;1297;24270;-41
2022/06/14 10:33:03;;;;;;;2.60;1.30;;;;;;100670.08;;;;106923;1296;22638;-41
2022/06/14 10:35:29;;;;;;;3.70;1.00;;;;;;100672.67;;;;106903;1300;22547;-42
2022/06/14 10:37:55;;;;;;;3.30;0.90;;;;;;100679.46;;;;106920;1296;22511;-41
2022/06/14 10:40:21;;;;;;;2.70;1.00;;;;;;100680.35;;;;106863;1297;42074;-41
2022/06/14 10:42:47;;;;;;;3.80;1.00;;;;;;100678.84;;;;106922;1301;22774;-41
2022/06/14 10:45:13;;;;;;;3.30;1.00;;;;;;100682.15;;;;106913;1297;23761;-41
2022/06/14 10:47:39;;;;;;;2.20;0.80;;;;;;100682.54;;;;106914;1297;25379;-41
2022/06/14 10:50:06;;;;;;;3.30;1.00;;;;;;100679.18;;;;106894;1296;22888;-41
2022/06/14 10:52:33;;;;;;;2.80;1.00;;;;;;100672.27;;;;106896;1296;22510;-39
2022/06/14 10:55:01;;;;;;;2.60;0.80;;;;;;100667.76;;;;106934;1297;24341;-40
2022/06/14 10:57:27;;;;;;;3.20;0.80;;;;;;100668.59;;;;106947;1296;23802;-40
2022/06/14 10:59:53;;;;;;;3.70;1.00;;;;;;100677.61;;;;106943;1297;23797;-41
2022/06/14 11:02:20;;;;;;;3.30;1.20;;;;;;100677.90;;;;106924;1297;24210;-41
2022/06/14 11:04:46;;;;;;;3.70;1.20;;;;;;100675.74;;;;106931;1295;24226;-40
2022/06/14 11:07:12;;;;;;;3.30;1.70;;;;;;100676.27;;;;106891;1295;22602;-41
2022/06/14 11:09:38;;;;;;;3.70;1.00;;;;;;100674.73;;;;106921;1296;22765;-41
2022/06/14 11:12:04;;;;;;;4.70;1.90;;;;;;100671.73;;;;106924;1296;24472;-41
2022/06/14 11:14:31;;;;;;;2.80;1.00;;;;;;100672.76;;;;106922;1295;22814;-41
2022/06/14 11:16:57;;;;;;;3.30;1.00;;;;;;100674.11;;;;106934;1296;22646;-40
2022/06/14 11:19:28;;;;;;;2.10;0.90;;;;;;100676.38;;;;106916;1297;22634;-40
2022/06/14 11:21:56;;;;;;;2.80;1.10;;;;;;100677.38;;;;106920;1296;23010;-40
2022/06/14 11:24:22;;;;;;;3.10;1.10;;;;;;100675.77;;;;106917;1297;22509;-41
2022/06/14 11:26:48;;;;;;;2.70;1.10;;;;;;100675.02;;;;106932;1297;23034;-41
2022/06/14 11:29:14;;;;;;;2.70;0.90;;;;;;100676.08;;;;106966;1297;23650;-41
2022/06/14 11:31:40;;;;;;;4.00;1.00;;;;;;100675.22;;;;106925;1297;22792;-40
2022/06/14 11:34:06;;;;;;;2.60;0.90;;;;;;100677.39;;;;106984;1300;22507;-41
2022/06/14 11:36:32;;;;;;;2.60;0.80;;;;;;100681.33;;;;106963;1295;22573;-41
2022/06/14 11:38:58;;;;;;;2.50;1.00;;;;;;100680.95;;;;106926;1296;25362;-36
2022/06/14 11:41:27;;;;;;;3.30;0.90;;;;;;100686.89;;;;106934;1295;23043;-36
2022/06/14 11:43:53;;;;;;;2.90;0.90;;;;;;100683.36;;;;106967;1297;24221;-36
2022/06/14 11:46:19;;;;;;;2.80;0.90;;;;;;100680.92;;;;106941;1297;24177;-34
2022/06/14 11:48:47;;;;;;;5.50;2.50;;;;;;100682.00;;;;106907;1296;22905;-34
2022/06/14 11:51:13;;;;;;;3.60;1.40;;;;;;100677.64;;;;106911;1295;24283;-34
2022/06/14 11:53:39;;;;;;;5.30;1.20;;;;;;100668.55;;;;106909;1296;22853;-34
2022/06/14 11:56:05;;;;;;;3.40;1.00;;;;;;100665.40;;;;106895;1296;24177;-36
2022/06/14 11:58:32;;;;;;;3.90;1.10;;;;;;100665.77;;;;106922;1297;22529;-37
2022/06/14 12:00:58;;;;;;;3.70;1.00;;;;;;100666.19;;;;106943;1297;24329;-35
2022/06/14 12:03:24;;;;;;;5.40;1.00;;;;;;100668.17;;;;106925;1296;22795;-34
2022/06/14 12:05:50;;;;;;;2.50;1.10;;;;;;100678.55;;;;106938;1296;22539;-36
2022/06/14 12:08:16;;;;;;;2.30;1.10;;;;;;100679.05;;;;106913;1297;22907;-34
2022/06/14 12:10:44;;;;;;;2.30;1.00;;;;;;100684.86;;;;106915;1296;23771;-35
2022/06/14 12:13:12;;;;;;;2.30;0.90;;;;;;100690.52;;;;106957;1300;22816;-33
2022/06/14 12:15:38;;;;;;;3.20;1.00;;;;;;100691.91;;;;106939;1296;23166;-34
2022/06/14 12:18:07;;;;;;;1.70;0.90;;;;;;100699.44;;;;106933;1297;25242;-34
2022/06/14 12:20:34;;;;;;;2.70;0.90;;;;;;100701.12;;;;106897;1295;22500;-33
2022/06/14 12:23:01;;;;;;;2.90;0.90;;;;;;100701.86;;;;106868;1296;25984;-33
2022/06/14 12:28:12;;;;;;;3.10;1.00;;;;;;100707.93;;;;106871;1297;22502;-35
2022/06/14 12:30:38;;;;;;;2.80;0.80;;;;;;100709.34;;;;106888;1296;22532;-35
2022/06/14 12:33:04;;;;;;;3.20;0.90;;;;;;100708.00;;;;106904;1297;22715;-34
2022/06/14 12:35:30;;;;;;;3.60;1.10;;;;;;100712.46;;;;106925;1296;22467;-36
2022/06/14 12:38:00;;;;;;;2.50;0.90;;;;;;100710.31;;;;106941;1296;22513;-37
2022/06/14 12:40:26;;;;;;;3.10;0.90;;;;;;100712.34;;;;106953;1296;22549;-38
2022/06/14 12:42:52;;;;;;;2.50;1.00;;;;;;100712.88;;;;106941;1297;22506;-39
2022/06/14 12:45:18;;;;;;;3.00;1.00;;;;;;100710.55;;;;106931;1295;22524;-39
2022/06/14 12:47:44;;;;;;;2.70;1.20;;;;;;100719.98;;;;106925;1297;22792;-39
2022/06/14 12:50:13;;;;;;;3.90;0.90;;;;;;100717.80;;;;106925;1297;22885;-39
2022/06/14 12:52:39;;;;;;;2.80;1.00;;;;;;100720.52;;;;106900;1301;22524;-39
2022/06/14 12:55:05;;;;;;;2.40;1.00;;;;;;100720.82;;;;106909;1296;22534;-39
2022/06/14 12:57:33;;;;;;;3.30;1.20;;;;;;100720.16;;;;106932;1297;22515;-39
2022/06/14 13:00:00;;;;;;;4.80;0.90;;;;;;100724.32;;;;106931;1297;22738;-38